createdAt,value
2018-05-01T00:06:43.845Z,99.90
2018-05-01T00:10:37.100Z,99.90
2018-05-01T00:14:30.465Z,99.90
2018-05-01T00:18:23.775Z,99.90
2018-05-01T00:22:16.972Z,99.90
2018-05-01T00:26:10.996Z,99.90
2018-05-01T00:30:04.219Z,99.90
2018-05-01T00:33:59.447Z,99.90
2018-05-01T00:37:53.004Z,99.90
2018-05-01T00:41:45.965Z,99.90
2018-05-01T00:45:39.128Z,99.90
2018-05-01T00:49:32.329Z,99.80
2018-05-01T00:53:25.467Z,99.70
2018-05-01T00:57:18.739Z,99.90
2018-05-01T01:01:12.690Z,99.90
2018-05-01T01:05:05.901Z,99.90
2018-05-01T01:09:00.531Z,99.90
2018-05-01T01:12:53.848Z,99.90
2018-05-01T01:16:47.019Z,99.50
2018-05-01T01:20:40.251Z,99.90
2018-05-01T01:24:34.284Z,99.90
2018-05-01T01:28:27.397Z,99.90
2018-05-01T01:32:20.652Z,99.90
2018-05-01T01:36:15.423Z,99.90
2018-05-01T01:40:08.126Z,99.90
2018-05-01T01:44:01.322Z,99.90
2018-05-01T01:47:54.866Z,99.90
2018-05-01T01:51:47.519Z,99.90
2018-05-01T01:55:40.151Z,99.90
2018-05-01T01:59:33.989Z,99.50
2018-05-01T02:03:26.672Z,99.50
2018-05-01T02:07:19.311Z,99.90
2018-05-01T02:11:12.044Z,99.80
2018-05-01T02:15:04.691Z,99.70
2018-05-01T02:18:57.321Z,99.60
2018-05-01T02:22:50.060Z,99.70
2018-05-01T02:26:42.819Z,99.40
2018-05-01T03:32:59.256Z,98.90
2018-05-01T03:36:53.915Z,98.70
2018-05-01T03:40:46.538Z,98.70
2018-05-01T03:44:39.145Z,98.50
2018-05-01T03:48:32.582Z,98.90
2018-05-01T03:52:25.276Z,98.90
2018-05-01T03:56:18.181Z,98.60
2018-05-01T04:00:12.198Z,98.70
2018-05-01T04:04:04.883Z,98.80
2018-05-01T04:07:57.553Z,99.00
2018-05-01T04:11:50.749Z,99.20
2018-05-01T04:15:43.356Z,99.10
2018-05-01T04:19:36.017Z,98.80
2018-05-01T04:23:28.703Z,98.60
2018-05-01T04:27:23.527Z,98.90
2018-05-01T04:31:16.339Z,99.20
2018-05-01T04:35:08.961Z,98.80
2018-05-01T04:39:02.128Z,99.00
2018-05-01T04:42:54.791Z,98.60
2018-05-01T04:46:47.567Z,98.50
2018-05-01T04:50:40.231Z,98.30
2018-05-01T04:54:36.717Z,98.30
2018-05-01T04:58:29.351Z,98.40
2018-05-01T05:02:21.978Z,98.30
2018-05-01T05:06:14.609Z,98.20
2018-05-01T05:10:07.919Z,98.20
2018-05-01T05:14:01.332Z,98.00
2018-05-01T05:17:58.592Z,98.10
2018-05-01T05:21:52.246Z,97.80
2018-05-01T05:25:46.488Z,98.10
2018-05-01T05:29:39.489Z,98.10
2018-05-01T05:33:32.089Z,98.20
2018-05-01T05:37:25.044Z,98.30
2018-05-01T05:41:18.700Z,98.10
2018-05-01T05:45:13.296Z,97.60
2018-05-01T05:49:06.650Z,97.40
2018-05-01T05:53:00.613Z,97.40
2018-05-01T05:56:53.244Z,97.00
2018-05-01T06:00:45.928Z,97.10
2018-05-01T06:04:38.580Z,96.90
2018-05-01T06:08:32.619Z,97.00
2018-05-01T06:12:25.291Z,96.70
2018-05-01T06:16:19.670Z,96.70
2018-05-01T06:20:13.797Z,97.40
2018-05-01T06:24:07.015Z,96.80
2018-05-01T06:28:01.434Z,96.20
2018-05-01T06:31:54.055Z,96.30
2018-05-01T06:35:47.656Z,96.20
2018-05-01T06:39:40.083Z,95.90
2018-05-01T06:43:33.013Z,96.10
2018-05-01T06:47:26.598Z,95.70
2018-05-01T06:51:20.467Z,95.40
2018-05-01T06:55:13.089Z,95.00
2018-05-01T06:59:05.780Z,94.20
2018-05-01T07:02:59.257Z,93.30
2018-05-01T07:06:51.888Z,93.30
2018-05-01T07:10:46.326Z,92.80
2018-05-01T07:14:39.599Z,92.70
2018-05-01T07:18:33.107Z,91.20
2018-05-01T07:22:25.996Z,90.80
2018-05-01T07:26:22.466Z,91.20
2018-05-01T07:30:15.892Z,91.00
2018-05-01T07:34:08.530Z,90.80
2018-05-01T07:38:03.097Z,90.90
2018-05-01T07:41:56.354Z,90.00
2018-05-01T07:45:49.003Z,88.30
2018-05-01T07:49:42.639Z,89.10
2018-05-01T07:53:36.096Z,86.70
2018-05-01T07:57:28.739Z,83.30
2018-05-01T08:01:21.422Z,82.90
2018-05-01T08:05:15.536Z,80.70
2018-05-01T08:09:08.845Z,80.70
2018-05-01T08:13:01.461Z,80.90
2018-05-01T08:16:55.812Z,77.20
2018-05-01T08:20:48.694Z,76.90
2018-05-01T08:24:41.323Z,75.00
2018-05-01T08:28:34.107Z,74.50
2018-05-01T08:32:27.521Z,72.70
2018-05-01T08:36:20.882Z,72.60
2018-05-01T08:40:13.602Z,72.90
2018-05-01T08:44:06.800Z,70.80
2018-05-01T08:47:59.440Z,70.80
2018-05-01T08:51:52.730Z,70.10
2018-05-01T08:55:45.388Z,67.20
2018-05-01T08:59:38.571Z,66.60
2018-05-01T09:03:31.210Z,67.20
2018-05-01T09:07:23.915Z,67.10
2018-05-01T09:11:17.369Z,67.60
2018-05-01T09:15:09.964Z,66.70
2018-05-01T09:19:03.357Z,65.60
2018-05-01T09:22:57.178Z,62.70
2018-05-01T09:26:49.815Z,59.50
2018-05-01T09:30:44.035Z,60.00
2018-05-01T09:34:36.700Z,60.00
2018-05-01T09:38:29.659Z,60.80
2018-05-01T09:42:23.153Z,61.20
2018-05-01T09:46:16.566Z,60.00
2018-05-01T09:50:09.211Z,60.70
2018-05-01T09:54:02.372Z,58.90
2018-05-01T09:57:56.405Z,57.10
2018-05-01T10:01:50.659Z,55.10
2018-05-01T10:05:45.348Z,55.50
2018-05-01T10:09:38.566Z,56.00
2018-05-01T10:13:31.730Z,56.40
2018-05-01T10:17:24.824Z,55.60
2018-05-01T10:21:17.995Z,56.80
2018-05-01T10:25:11.188Z,57.20
2018-05-01T10:29:05.110Z,56.60
2018-05-01T10:32:58.225Z,56.60
2018-05-01T10:36:53.049Z,56.20
2018-05-01T10:40:47.931Z,56.50
2018-05-01T10:44:42.207Z,56.40
2018-05-01T10:48:35.361Z,57.00
2018-05-01T10:52:29.349Z,55.40
2018-05-01T10:56:22.484Z,55.10
2018-05-01T11:00:16.489Z,55.30
2018-05-01T11:04:09.607Z,55.60
2018-05-01T11:08:03.345Z,55.30
2018-05-01T11:11:57.128Z,56.30
2018-05-01T11:15:50.967Z,53.20
2018-05-01T11:19:44.081Z,52.60
2018-05-01T11:23:37.235Z,51.70
2018-05-01T11:27:30.767Z,52.20
2018-05-01T11:31:24.555Z,51.80
2018-05-01T11:35:19.597Z,52.50
2018-05-01T11:39:12.767Z,53.30
2018-05-01T11:43:05.897Z,52.80
2018-05-01T11:46:59.684Z,51.70
2018-05-01T11:50:52.802Z,51.60
2018-05-01T11:54:46.285Z,50.50
2018-05-01T11:58:41.200Z,52.20
2018-05-01T12:02:34.321Z,52.00
2018-05-01T12:06:28.554Z,52.70
2018-05-01T12:10:21.695Z,50.60
2018-05-01T12:14:15.820Z,49.20
2018-05-01T12:18:09.170Z,48.90
2018-05-01T12:22:02.931Z,47.60
2018-05-01T12:25:57.085Z,44.40
2018-05-01T12:29:52.282Z,45.60
2018-05-01T12:33:45.457Z,46.90
2018-05-01T12:37:39.052Z,42.20
2018-05-01T12:41:37.481Z,39.80
2018-05-01T12:45:30.625Z,39.80
2018-05-01T12:49:24.664Z,37.40
2018-05-01T12:53:17.860Z,35.80
2018-05-01T12:57:10.993Z,37.40
2018-05-01T13:01:04.148Z,36.70
2018-05-01T13:04:57.676Z,38.10
2018-05-01T13:08:51.539Z,39.70
2018-05-01T13:12:46.572Z,40.90
2018-05-01T13:16:39.738Z,40.90
2018-05-01T13:20:32.956Z,42.60
2018-05-01T13:24:26.731Z,41.70
2018-05-01T13:28:19.865Z,41.90
2018-05-01T13:32:12.980Z,41.20
2018-05-01T13:36:07.427Z,41.80
2018-05-01T13:40:00.552Z,42.40
2018-05-01T13:43:54.484Z,42.00
2018-05-01T13:47:47.660Z,42.00
2018-05-01T13:51:41.158Z,41.20
2018-05-01T13:55:38.856Z,41.40
2018-05-01T13:59:32.078Z,40.50
2018-05-01T14:03:25.261Z,40.70
2018-05-01T14:07:18.427Z,40.70
2018-05-01T14:11:11.544Z,38.90
2018-05-01T14:15:04.853Z,36.90
2018-05-01T14:18:59.531Z,38.20
2018-05-01T14:22:52.764Z,37.10
2018-05-01T14:26:45.841Z,36.50
2018-05-01T14:30:39.735Z,36.80
2018-05-01T14:34:32.846Z,38.00
2018-05-01T14:38:27.783Z,35.90
2018-05-01T14:42:21.880Z,35.30
2018-05-01T14:46:15.008Z,34.90
2018-05-01T14:50:09.165Z,34.90
2018-05-01T14:54:02.324Z,35.20
2018-05-01T14:57:55.446Z,35.30
2018-05-01T15:01:48.750Z,35.50
2018-05-01T15:05:42.022Z,34.70
2018-05-01T15:09:35.151Z,35.70
2018-05-01T15:13:28.358Z,36.90
2018-05-01T15:17:22.512Z,35.90
2018-05-01T15:21:15.696Z,36.70
2018-05-01T15:25:08.809Z,37.00
2018-05-01T15:29:01.946Z,35.70
2018-05-01T15:32:56.287Z,33.30
2018-05-01T15:36:50.280Z,35.00
2018-05-01T15:40:43.433Z,34.90
2018-05-01T15:44:36.660Z,35.90
2018-05-01T15:48:29.791Z,37.00
2018-05-01T15:52:22.908Z,35.70
2018-05-01T15:56:17.556Z,36.60
2018-05-01T16:00:11.048Z,36.50
2018-05-01T16:04:04.394Z,36.20
2018-05-01T16:07:58.455Z,36.40
2018-05-01T16:11:51.829Z,35.00
2018-05-01T16:15:46.801Z,36.00
2018-05-01T16:19:42.106Z,36.70
2018-05-01T16:23:36.036Z,37.20
2018-05-01T16:27:29.876Z,37.20
2018-05-01T16:31:23.514Z,36.20
2018-05-01T16:35:17.430Z,35.50
2018-05-01T16:39:10.556Z,36.00
2018-05-01T16:43:03.711Z,35.70
2018-05-01T16:46:56.883Z,35.60
2018-05-01T16:50:51.058Z,35.50
2018-05-01T16:54:44.778Z,35.50
2018-05-01T16:58:37.953Z,34.90
2018-05-01T17:02:31.351Z,35.00
2018-05-01T17:06:26.344Z,36.00
2018-05-01T17:10:19.712Z,35.80
2018-05-01T17:14:12.804Z,36.70
2018-05-01T17:18:05.932Z,36.80
2018-05-01T17:22:00.723Z,36.90
2018-05-01T17:25:53.848Z,36.90
2018-05-01T17:29:47.054Z,37.50
2018-05-01T17:33:40.167Z,37.00
2018-05-01T17:37:34.077Z,37.10
2018-05-01T17:41:27.188Z,37.90
2018-05-01T17:45:20.745Z,38.70
2018-05-01T17:49:14.216Z,38.90
2018-05-01T17:53:07.336Z,39.10
2018-05-01T17:57:00.565Z,39.50
2018-05-01T18:00:57.241Z,41.00
2018-05-01T18:04:51.224Z,41.00
2018-05-01T18:08:45.675Z,42.00
2018-05-01T18:12:38.894Z,42.00
2018-05-01T18:16:32.700Z,41.70
2018-05-01T18:20:25.838Z,42.00
2018-05-01T18:24:18.971Z,42.30
2018-05-01T18:28:12.156Z,43.00
2018-05-01T18:32:05.257Z,44.10
2018-05-01T18:35:58.647Z,45.00
2018-05-01T18:39:51.849Z,46.00
2018-05-01T18:43:45.006Z,47.60
2018-05-01T18:47:39.356Z,48.90
2018-05-01T18:51:32.459Z,49.70
2018-05-01T18:55:29.253Z,51.00
2018-05-01T18:59:22.416Z,52.20
2018-05-01T19:03:15.525Z,53.40
2018-05-01T19:07:09.438Z,55.30
2018-05-01T19:11:02.830Z,55.20
2018-05-01T19:14:55.970Z,56.20
2018-05-01T19:18:50.123Z,56.90
2018-05-01T19:22:44.008Z,59.00
2018-05-01T19:26:38.618Z,59.30
2018-05-01T19:30:32.488Z,59.80
2018-05-01T19:34:26.458Z,60.80
2018-05-01T19:38:20.175Z,60.70
2018-05-01T19:42:13.091Z,61.60
2018-05-01T19:46:08.056Z,62.90
2018-05-01T19:50:02.565Z,64.90
2018-05-01T19:53:55.787Z,65.30
2018-05-01T19:57:49.691Z,65.10
2018-05-01T20:01:43.164Z,65.10
2018-05-01T20:05:37.560Z,65.20
2018-05-01T20:09:30.676Z,65.40
2018-05-01T20:13:24.684Z,65.90
2018-05-01T20:17:19.467Z,67.60
2018-05-01T20:21:12.603Z,67.60
2018-05-01T20:25:06.532Z,67.50
2018-05-01T20:29:00.548Z,67.90
2018-05-01T20:32:53.686Z,68.30
2018-05-01T20:36:46.925Z,69.20
2018-05-01T20:40:40.105Z,70.00
2018-05-01T20:44:33.250Z,69.50
2018-05-01T20:48:27.156Z,70.70
2018-05-01T20:52:21.395Z,70.60
2018-05-01T20:56:18.265Z,70.90
2018-05-01T21:00:12.211Z,71.20
2018-05-01T21:04:05.367Z,71.10
2018-05-01T21:11:57.983Z,71.40
2018-05-01T21:15:52.063Z,72.70
2018-05-01T21:19:45.884Z,72.30
2018-05-01T21:23:39.361Z,71.70
2018-05-01T21:27:32.788Z,71.80
2018-05-01T21:31:25.916Z,72.40
2018-05-01T21:35:19.048Z,72.80
2018-05-01T21:39:12.156Z,72.80
2018-05-01T21:43:05.392Z,73.80
2018-05-01T21:46:58.440Z,73.70
2018-05-01T21:50:53.023Z,73.80
2018-05-01T21:54:46.194Z,73.30
2018-05-01T21:58:39.395Z,73.60
2018-05-01T22:02:32.538Z,74.20
2018-05-01T22:06:25.833Z,73.60
2018-05-01T22:10:19.766Z,73.60
2018-05-01T22:14:13.310Z,73.00
2018-05-01T22:18:06.473Z,73.40
2018-05-01T22:21:59.588Z,73.80
2018-05-01T22:25:52.696Z,72.90
2018-05-01T22:29:46.829Z,73.00
2018-05-01T22:33:40.703Z,74.10
2018-05-01T22:37:34.458Z,72.80
2018-05-01T22:41:27.600Z,72.20
2018-05-01T22:45:20.506Z,72.80
2018-05-01T22:49:13.641Z,73.60
2018-05-01T22:53:07.655Z,72.80
2018-05-01T22:57:00.776Z,72.50
2018-05-01T23:00:53.953Z,72.90
2018-05-01T23:04:47.070Z,72.50
2018-05-01T23:08:41.215Z,72.20
2018-05-01T23:12:34.650Z,72.10
2018-05-01T23:16:28.496Z,72.10
2018-05-01T23:20:21.648Z,72.80
2018-05-01T23:24:15.732Z,72.00
2018-05-01T23:28:08.902Z,72.40
2018-05-01T23:32:02.063Z,73.00
2018-05-01T23:35:55.196Z,73.70
2018-05-01T23:39:48.311Z,74.80
2018-05-01T23:43:41.943Z,73.90
2018-05-01T23:47:35.077Z,73.90
2018-05-01T23:51:28.227Z,73.70
2018-05-01T23:55:22.076Z,74.30
2018-05-01T23:59:15.180Z,74.30
